Time;durP1;ratioP1;P1;durP2;ratioP2;P2;SDS_P1;SDS_P2;PMS_P1;PMS_P2;Temp;Humidity;BMP_temperature;BMP_pressure;BME280_temperature;BME280_humidity;BME280_pressure;Samples;Min_cycle;Max_cycle;Signal;HPM_P1;HPM_P2
2022/10/08 00:01:37;;;;;;;3.50;3.20;;;;;;;14.67;62.24;100212.25;5071556;28;20223;-72
2022/10/08 00:04:05;;;;;;;4.20;3.80;;;;;;;14.78;62.79;100203.59;5071211;28;20196;-72
2022/10/08 00:06:32;;;;;;;6.40;3.83;;;;;;;14.96;61.50;100205.69;5071289;28;20241;-71
2022/10/08 00:09:02;;;;;;;6.07;3.80;;;;;;;15.01;60.94;100196.00;5071944;28;20261;-72
2022/10/08 00:11:31;;;;;;;4.50;3.30;;;;;;;15.17;60.75;100203.59;5071099;28;20323;-71
2022/10/08 00:13:58;;;;;;;5.40;3.27;;;;;;;15.27;60.46;100203.16;5072588;28;20225;-72
2022/10/08 00:16:27;;;;;;;3.50;3.17;;;;;;;15.37;60.56;100193.72;5075399;28;20192;-72
2022/10/08 00:18:55;;;;;;;4.00;3.70;;;;;;;15.41;60.51;100192.22;5074874;28;20277;-71
2022/10/08 00:21:26;;;;;;;4.40;3.30;;;;;;;15.47;59.42;100186.06;5074777;28;20257;-71
2022/10/08 00:23:54;;;;;;;4.03;3.50;;;;;;;15.53;60.17;100174.47;5075349;28;20534;-71
2022/10/08 00:26:23;;;;;;;4.23;3.40;;;;;;;15.55;59.38;100180.47;5075000;28;20200;-71
2022/10/08 00:28:52;;;;;;;6.20;3.30;;;;;;;15.63;58.96;100180.22;5074795;28;20282;-71
2022/10/08 00:31:22;;;;;;;8.63;3.10;;;;;;;15.66;59.03;100182.50;5074627;28;20200;-72
2022/10/08 00:33:49;;;;;;;3.43;3.13;;;;;;;15.68;58.84;100174.22;5074634;28;20188;-73
2022/10/08 00:36:16;;;;;;;3.93;3.50;;;;;;;15.71;59.17;100173.81;5074966;28;20188;-72
2022/10/08 00:38:44;;;;;;;6.20;3.57;;;;;;;15.70;59.04;100178.34;5074847;28;20223;-73
2022/10/08 00:41:18;;;;;;;4.20;3.23;;;;;;;15.70;59.20;100174.84;5074498;28;20188;-72
2022/10/08 00:43:48;;;;;;;4.17;3.03;;;;;;;15.67;59.24;100176.09;5074748;28;20627;-73
2022/10/08 00:46:26;;;;;;;3.93;3.40;;;;;;;15.58;59.17;100174.69;5074351;28;20667;-73
2022/10/08 00:48:57;;;;;;;4.23;3.90;;;;;;;15.59;59.59;100176.34;5074814;28;20184;-73
2022/10/08 00:51:24;;;;;;;4.00;3.33;;;;;;;15.61;59.73;100171.56;5074806;28;20262;-73
2022/10/08 00:53:53;;;;;;;5.30;3.63;;;;;;;15.65;59.13;100170.13;5074629;28;20188;-72
2022/10/08 00:56:20;;;;;;;4.53;3.63;;;;;;;15.65;59.15;100178.16;5074782;28;20253;-73
2022/10/08 00:58:47;;;;;;;3.70;3.50;;;;;;;15.62;59.54;100172.41;5075056;28;20220;-73
2022/10/08 01:01:14;;;;;;;6.13;3.63;;;;;;;15.62;59.46;100170.56;5073997;28;20633;-73
2022/10/08 01:03:40;;;;;;;4.93;3.50;;;;;;;15.61;59.56;100158.19;5074605;28;20257;-72
2022/10/08 01:06:20;;;;;;;4.27;3.73;;;;;;;15.55;60.16;100156.38;5074013;28;20253;-72
2022/10/08 01:08:55;;;;;;;9.30;3.30;;;;;;;15.51;59.82;100152.47;5074403;28;20613;-73
2022/10/08 01:11:33;;;;;;;7.77;3.50;;;;;;;15.42;60.56;100148.38;5074528;28;20702;-73
2022/10/08 01:14:08;;;;;;;5.67;3.50;;;;;;;15.42;61.01;100163.63;5074304;28;20192;-73
2022/10/08 01:16:43;;;;;;;3.83;3.53;;;;;;;15.40;60.35;100153.13;5073922;28;20191;-73
2022/10/08 01:19:31;;;;;;;4.27;3.53;;;;;;;15.37;61.40;100150.88;5074453;28;20211;-73
2022/10/08 01:22:08;;;;;;;4.17;3.60;;;;;;;15.37;61.19;100142.84;5074338;28;20191;-72
2022/10/08 01:27:36;;;;;;;3.90;3.50;;;;;;;15.33;60.25;100146.13;5073844;28;20179;-72
2022/10/08 01:30:06;;;;;;;6.43;4.17;;;;;;;15.27;60.88;100142.41;5074862;28;20184;-72
2022/10/08 01:32:39;;;;;;;4.27;3.47;;;;;;;15.28;61.68;100141.38;5073963;28;20184;-72
2022/10/08 01:35:11;;;;;;;5.43;4.30;;;;;;;15.27;61.89;100133.56;5074442;28;20188;-72
2022/10/08 01:37:41;;;;;;;6.10;4.37;;;;;;;15.30;61.61;100139.31;5073659;28;20241;-72
2022/10/08 01:40:13;;;;;;;8.40;4.47;;;;;;;15.30;61.42;100142.00;5073647;28;20192;-72
2022/10/08 01:42:42;;;;;;;8.17;4.83;;;;;;;15.29;60.76;100143.03;5073441;28;20271;-72
2022/10/08 01:45:12;;;;;;;12.47;3.93;;;;;;;15.25;60.96;100135.63;5074500;28;20575;-74
2022/10/08 01:47:42;;;;;;;7.27;4.97;;;;;;;15.19;61.42;100128.44;5073581;28;20241;-76
2022/10/08 01:50:14;;;;;;;13.97;4.97;;;;;;;15.13;61.43;100138.16;5074194;28;20225;-77
2022/10/08 01:52:46;;;;;;;8.50;3.93;;;;;;;15.02;61.94;100136.09;5073579;28;20238;-76
2022/10/08 01:55:19;;;;;;;7.57;4.40;;;;;;;14.93;62.36;100133.84;5073128;28;20191;-76
2022/10/08 01:57:49;;;;;;;6.90;4.43;;;;;;;14.83;62.72;100139.63;5073011;28;20261;-76
2022/10/08 02:00:16;;;;;;;9.27;4.17;;;;;;;14.74;62.66;100138.19;5072997;28;20245;-76
2022/10/08 02:02:43;;;;;;;7.53;4.60;;;;;;;14.63;62.89;100141.47;5073131;28;20246;-77
2022/10/08 02:05:11;;;;;;;9.87;4.77;;;;;;;14.53;63.36;100134.91;5073562;28;20192;-76
2022/10/08 02:07:41;;;;;;;17.50;4.57;;;;;;;14.43;64.24;100140.69;5073345;28;20192;-76
2022/10/08 02:10:10;;;;;;;11.63;5.10;;;;;;;14.35;64.73;100138.19;5073089;28;20224;-76
2022/10/08 02:12:38;;;;;;;14.87;4.20;;;;;;;14.26;64.83;100138.59;5072754;28;20188;-76
2022/10/08 02:15:09;;;;;;;11.57;4.43;;;;;;;14.18;65.03;100136.88;5072594;28;20196;-76
2022/10/08 02:17:43;;;;;;;8.03;4.23;;;;;;;14.12;65.18;100139.56;5073089;28;20184;-76
2022/10/08 02:20:17;;;;;;;8.00;4.20;;;;;;;14.03;66.03;100148.78;5072700;28;20226;-76
2022/10/08 02:22:52;;;;;;;4.53;4.13;;;;;;;13.92;66.26;100146.69;5072884;28;20214;-76
2022/10/08 02:25:26;;;;;;;6.57;3.37;;;;;;;13.81;66.00;100140.09;5072971;28;20233;-76
2022/10/08 02:27:59;;;;;;;4.17;3.60;;;;;;;13.69;66.81;100146.22;5072496;28;20652;-76
2022/10/08 02:30:33;;;;;;;4.43;4.03;;;;;;;13.57;67.27;100137.97;5073070;28;20224;-76
2022/10/08 02:33:05;;;;;;;3.80;3.50;;;;;;;13.57;67.51;100148.66;5072713;28;20187;-76
2022/10/08 02:35:37;;;;;;;5.00;4.00;;;;;;;13.54;67.59;100138.38;5073055;28;20183;-76
2022/10/08 02:38:10;;;;;;;6.07;4.20;;;;;;;13.49;67.80;100140.81;5072109;28;20243;-76
2022/10/08 02:40:41;;;;;;;4.60;4.07;;;;;;;13.48;67.99;100131.16;5073272;28;20245;-77
2022/10/08 02:43:13;;;;;;;6.73;4.40;;;;;;;13.48;67.43;100133.81;5072609;28;20189;-77
2022/10/08 02:45:46;;;;;;;8.73;4.20;;;;;;;13.44;68.43;100137.91;5073460;28;20245;-77
2022/10/08 02:48:19;;;;;;;5.37;4.17;;;;;;;13.43;68.47;100136.25;5072156;28;20279;-77
2022/10/08 02:50:50;;;;;;;7.80;3.80;;;;;;;13.37;68.67;100131.72;5073127;28;20195;-75
2022/10/08 02:53:17;;;;;;;8.97;4.37;;;;;;;13.32;68.84;100138.69;5072408;28;20187;-75
2022/10/08 02:55:50;;;;;;;4.93;4.53;;;;;;;13.20;69.11;100135.75;5072429;28;20240;-76
2022/10/08 02:58:18;;;;;;;4.83;4.33;;;;;;;13.15;69.29;100145.38;5072297;28;20208;-76
2022/10/08 03:00:53;;;;;;;4.93;4.53;;;;;;;12.95;69.83;100137.19;5072459;28;20206;-76
2022/10/08 03:03:28;;;;;;;4.40;4.03;;;;;;;12.89;70.26;100145.97;5071940;28;20229;-76
2022/10/08 03:05:57;;;;;;;5.83;4.60;;;;;;;12.92;69.73;100145.59;5072063;28;20257;-76
2022/10/08 03:08:24;;;;;;;6.23;4.90;;;;;;;12.92;69.83;100142.94;5072246;28;20196;-76
2022/10/08 03:10:51;;;;;;;4.60;4.23;;;;;;;12.92;69.54;100137.59;5072242;28;20761;-76
2022/10/08 03:13:19;;;;;;;6.30;4.63;;;;;;;12.90;69.70;100141.47;5072122;28;20249;-76
2022/10/08 03:15:52;;;;;;;4.97;4.57;;;;;;;12.91;69.22;100143.94;5071891;28;20750;-74
2022/10/08 03:18:20;;;;;;;8.63;5.13;;;;;;;12.91;69.18;100133.25;5072250;28;20204;-74
2022/10/08 03:20:50;;;;;;;5.27;4.60;;;;;;;12.89;69.35;100145.97;5071803;28;20732;-74
2022/10/08 03:23:18;;;;;;;7.80;4.97;;;;;;;12.88;69.59;100141.69;5071777;28;20605;-76
2022/10/08 03:25:45;;;;;;;9.37;5.40;;;;;;;12.86;69.70;100142.88;5071843;28;20244;-77
2022/10/08 03:28:12;;;;;;;5.73;5.23;;;;;;;12.70;70.35;100141.31;5071780;28;20547;-77
2022/10/08 03:30:39;;;;;;;5.70;5.20;;;;;;;12.70;70.22;100138.66;5071759;28;20192;-77
2022/10/08 03:33:07;;;;;;;5.47;4.93;;;;;;;12.71;70.02;100128.81;5071998;28;20195;-77
2022/10/08 03:35:34;;;;;;;7.73;5.13;;;;;;;12.72;69.79;100131.31;5071779;28;20192;-76
2022/10/08 03:38:00;;;;;;;7.33;5.53;;;;;;;12.78;69.69;100135.84;5071900;28;20195;-76
2022/10/08 03:40:27;;;;;;;5.40;4.70;;;;;;;12.70;70.38;100132.53;5072206;28;20199;-76
2022/10/08 03:42:54;;;;;;;6.13;5.23;;;;;;;12.70;69.93;100128.00;5071450;28;20195;-76
2022/10/08 03:45:20;;;;;;;6.10;4.10;;;;;;;12.69;70.49;100125.50;5071653;28;20655;-77
2022/10/08 03:47:51;;;;;;;6.47;4.37;;;;;;;12.58;70.18;100108.22;5072936;28;20257;-77
2022/10/08 03:50:19;;;;;;;6.00;5.23;;;;;;;12.60;70.84;100124.00;5075939;28;20215;-77
2022/10/08 03:52:46;;;;;;;9.27;4.87;;;;;;;12.51;70.91;100118.03;5075989;28;20191;-78
2022/10/08 03:55:13;;;;;;;8.90;4.97;;;;;;;12.42;71.16;100121.81;5075974;28;20202;-77
2022/10/08 03:57:39;;;;;;;7.57;4.57;;;;;;;12.31;71.26;100119.69;5075326;28;20619;-76
2022/10/08 04:00:07;;;;;;;4.83;4.37;;;;;;;12.22;71.89;100123.50;5076420;28;20223;-76
2022/10/08 04:02:34;;;;;;;6.27;4.90;;;;;;;12.16;72.34;100118.13;5075385;28;20196;-75
2022/10/08 04:05:01;;;;;;;7.53;4.47;;;;;;;11.99;72.98;100125.53;5075468;28;20200;-75
2022/10/08 04:07:29;;;;;;;6.13;4.13;;;;;;;11.90;73.54;100129.34;5075092;28;20254;-76
2022/10/08 04:09:55;;;;;;;5.37;4.33;;;;;;;11.85;73.82;100129.09;5075532;28;20226;-79
2022/10/08 04:12:22;;;;;;;5.43;4.80;;;;;;;11.77;74.60;100123.03;5075243;28;20195;-78
2022/10/08 04:14:49;;;;;;;8.00;4.37;;;;;;;11.82;74.69;100117.97;5075412;28;20255;-76
2022/10/08 04:17:15;;;;;;;7.23;3.90;;;;;;;11.78;74.30;100117.53;5075088;28;20679;-76
2022/10/08 04:19:42;;;;;;;4.50;4.10;;;;;;;11.69;74.77;100117.81;5074835;28;20289;-76
2022/10/08 04:22:09;;;;;;;5.03;4.53;;;;;;;11.57;75.29;100114.81;5075054;28;20195;-76
2022/10/08 04:24:37;;;;;;;4.67;3.73;;;;;;;11.56;75.60;100121.13;5074573;28;20211;-75
2022/10/08 04:27:04;;;;;;;4.70;4.40;;;;;;;11.41;76.39;100116.84;5075164;28;20244;-76
2022/10/08 04:29:30;;;;;;;5.17;3.93;;;;;;;11.38;76.54;100107.41;5075083;28;20198;-80
2022/10/08 04:31:57;;;;;;;4.40;3.93;;;;;;;11.39;77.04;100108.25;5074790;28;20683;-82
2022/10/08 04:34:24;;;;;;;3.73;3.53;;;;;;;11.36;76.93;100114.75;5074979;28;20256;-78
2022/10/08 04:36:50;;;;;;;6.23;4.03;;;;;;;11.40;76.88;100108.06;5075022;28;20194;-82
2022/10/08 04:39:17;;;;;;;5.40;3.93;;;;;;;11.32;76.93;100104.66;5074784;28;20280;-82
2022/10/08 04:41:45;;;;;;;4.37;4.00;;;;;;;11.33;76.94;100109.81;5074684;28;20631;-79
2022/10/08 04:44:12;;;;;;;7.13;4.23;;;;;;;11.35;76.88;100115.75;5074541;28;20255;-79
2022/10/08 04:46:38;;;;;;;5.97;4.80;;;;;;;11.47;77.08;100108.13;5074964;28;20205;-78
2022/10/08 04:49:05;;;;;;;4.53;4.17;;;;;;;11.67;76.69;100107.38;5074035;28;20194;-80
2022/10/08 04:51:32;;;;;;;5.30;4.33;;;;;;;11.89;75.35;100106.41;5074935;28;20551;-76
2022/10/08 04:53:58;;;;;;;4.97;4.67;;;;;;;12.04;75.10;100104.47;5094749;28;20263;-73
2022/10/08 04:56:28;;;;;;;5.53;4.37;;;;;;;11.96;73.62;100066.53;5094634;28;20199;-74
2022/10/08 04:58:57;;;;;;;4.83;4.43;;;;;;;12.31;72.83;100094.88;5093115;28;20302;-74
2022/10/08 05:01:25;;;;;;;4.80;4.23;;;;;;;12.62;71.94;100114.81;5086748;28;20654;-74
2022/10/08 05:03:54;;;;;;;7.37;4.40;;;;;;;12.76;70.88;100110.41;5073943;28;20681;-74
2022/10/08 05:06:23;;;;;;;4.70;4.40;;;;;;;13.20;70.46;100117.09;5074480;28;20195;-73
2022/10/08 05:08:51;;;;;;;4.70;4.30;;;;;;;13.67;67.75;100127.75;5074278;28;20209;-73
2022/10/08 05:11:18;;;;;;;6.30;4.13;;;;;;;14.01;67.34;100122.28;5074600;28;20277;-73
2022/10/08 05:13:49;;;;;;;4.10;3.80;;;;;;;14.37;65.60;100104.06;5073791;28;20624;-72
2022/10/08 05:16:18;;;;;;;10.33;4.97;;;;;;;14.85;63.25;100132.22;5072864;28;20613;-72
2022/10/08 05:18:45;;;;;;;4.80;4.40;;;;;;;14.95;63.33;100137.16;5073978;28;20223;-72
2022/10/08 05:21:15;;;;;;;6.73;4.20;;;;;;;15.21;61.54;100140.59;5073812;28;20245;-70
2022/10/08 05:23:42;;;;;;;6.43;4.10;;;;;;;15.43;60.34;100144.66;5073789;28;20204;-71
2022/10/08 05:26:16;;;;;;;6.10;3.87;;;;;;;15.47;59.55;100151.25;5073972;28;20618;-71
2022/10/08 05:28:45;;;;;;;7.90;3.70;;;;;;;15.60;59.70;100153.03;5073710;28;20651;-71
2022/10/08 05:31:12;;;;;;;4.40;4.00;;;;;;;15.66;58.76;100147.69;5073647;28;20188;-70
2022/10/08 05:33:40;;;;;;;5.13;3.90;;;;;;;15.99;58.73;100150.19;5073433;28;20659;-72
2022/10/08 05:36:10;;;;;;;5.03;3.90;;;;;;;16.13;57.73;100158.97;5074291;28;20208;-73
2022/10/08 05:38:37;;;;;;;5.50;3.93;;;;;;;16.02;57.77;100159.66;5073633;28;20277;-72
2022/10/08 05:41:11;;;;;;;5.43;4.47;;;;;;;16.22;57.32;100157.69;5073702;28;20245;-75
2022/10/08 05:43:38;;;;;;;8.80;4.03;;;;;;;16.58;56.66;100155.19;5072918;28;20191;-74
2022/10/08 05:46:05;;;;;;;6.73;3.77;;;;;;;16.96;55.47;100169.28;5073596;28;20200;-74
2022/10/08 05:48:32;;;;;;;7.80;4.70;;;;;;;17.20;54.63;100166.59;5073550;28;20253;-73
2022/10/08 05:51:05;;;;;;;7.53;3.67;;;;;;;17.26;53.25;100175.59;5073396;28;20199;-73
2022/10/08 05:53:34;;;;;;;4.53;4.20;;;;;;;17.25;54.59;100152.47;5090027;28;20202;-73
2022/10/08 05:56:02;;;;;;;7.30;5.63;;;;;;;17.34;56.26;100161.88;5092988;28;20192;-73
2022/10/08 05:58:29;;;;;;;7.13;4.80;;;;;;;17.70;53.66;100172.66;5093208;28;20201;-68
2022/10/08 06:00:59;;;;;;;8.93;6.50;;;;;;;17.86;55.60;100167.50;5089412;28;20271;-68
2022/10/08 06:03:26;;;;;;;13.33;5.73;;;;;;;18.54;56.27;100165.31;5073008;28;20192;-68
2022/10/08 06:05:54;;;;;;;6.87;3.93;;;;;;;19.09;48.54;100186.31;5072849;28;20218;-67
2022/10/08 06:08:22;;;;;;;16.27;6.43;;;;;;;19.61;50.56;100171.06;5072092;28;20660;-65
2022/10/08 06:10:50;;;;;;;6.97;5.20;;;;;;;19.90;46.05;100178.16;5069191;28;20283;-66
2022/10/08 06:13:16;;;;;;;15.17;6.67;;;;;;;20.60;44.30;100179.47;5072105;28;20190;-66
2022/10/08 06:15:43;;;;;;;9.20;6.07;;;;;;;21.21;44.32;100170.47;5072425;28;20675;-64
2022/10/08 06:18:10;;;;;;;6.73;5.07;;;;;;;21.57;43.45;100172.63;5072592;28;20203;-65
2022/10/08 06:20:37;;;;;;;14.13;4.93;;;;;;;21.49;40.96;100179.28;5072350;28;20242;-63
2022/10/08 06:23:04;;;;;;;12.07;5.13;;;;;;;21.27;42.13;100180.31;5072548;28;20622;-63
2022/10/08 06:25:36;;;;;;;7.27;4.70;;;;;;;21.36;42.36;100179.63;5072530;28;20582;-66
2022/10/08 06:28:03;;;;;;;17.37;4.03;;;;;;;21.62;41.03;100178.91;5073124;28;20215;-62
2022/10/08 06:30:29;;;;;;;14.87;4.00;;;;;;;21.93;40.67;100178.22;5072316;28;20200;-62
2022/10/08 06:32:56;;;;;;;10.43;3.87;;;;;;;22.15;40.35;100179.03;5072335;28;20626;-62
2022/10/08 06:35:23;;;;;;;11.87;4.47;;;;;;;22.40;39.83;100175.75;5072660;28;20245;-62
2022/10/08 06:37:49;;;;;;;6.23;3.83;;;;;;;22.24;39.43;100182.91;5072655;28;20263;-62
2022/10/08 06:40:16;;;;;;;10.53;4.00;;;;;;;22.01;39.80;100177.78;5072806;28;20215;-62
2022/10/08 06:42:44;;;;;;;5.63;3.80;;;;;;;21.64;40.77;100170.53;5072821;28;20200;-63
2022/10/08 06:45:11;;;;;;;10.67;3.60;;;;;;;21.64;41.59;100175.97;5072492;28;20200;-62
2022/10/08 06:47:38;;;;;;;10.43;3.80;;;;;;;21.78;40.71;100175.34;5072502;28;20244;-62
2022/10/08 06:50:06;;;;;;;7.83;3.73;;;;;;;21.89;41.25;100168.19;5072044;28;20265;-62
2022/10/08 06:52:32;;;;;;;7.20;4.00;;;;;;;22.22;40.20;100165.31;5073140;28;20296;-62
2022/10/08 06:54:59;;;;;;;3.90;3.50;;;;;;;22.38;39.82;100162.47;5072272;28;20253;-62
2022/10/08 06:57:26;;;;;;;7.03;3.60;;;;;;;22.41;40.74;100156.56;5071663;28;20445;-62
2022/10/08 06:59:56;;;;;;;13.63;4.17;;;;;;;22.92;39.41;100161.38;5071907;28;20220;-63
2022/10/08 07:02:23;;;;;;;6.53;3.97;;;;;;;22.80;38.59;100166.16;5072268;28;20272;-65
2022/10/08 07:04:50;;;;;;;5.57;3.00;;;;;;;22.97;38.61;100166.00;5072434;28;20246;-62
2022/10/08 07:07:16;;;;;;;4.80;3.37;;;;;;;23.02;38.43;100164.13;5071978;28;20196;-62
2022/10/08 07:09:43;;;;;;;10.97;4.00;;;;;;;22.99;38.53;100164.66;5071734;28;20200;-62
2022/10/08 07:12:10;;;;;;;6.27;3.60;;;;;;;22.89;38.16;100167.28;5072562;28;20189;-62
2022/10/08 07:14:36;;;;;;;3.17;2.97;;;;;;;22.81;39.06;100165.06;5072048;28;20248;-67
2022/10/08 07:17:04;;;;;;;4.40;3.80;;;;;;;23.17;38.48;100166.97;5071844;28;20193;-62
2022/10/08 07:19:31;;;;;;;10.50;3.70;;;;;;;23.32;37.90;100164.34;5072116;28;20221;-62
2022/10/08 07:21:58;;;;;;;7.00;3.10;;;;;;;23.57;37.44;100156.34;5071557;28;20198;-62
2022/10/08 07:24:24;;;;;;;13.47;4.17;;;;;;;23.86;37.08;100160.28;5071780;28;20200;-62
2022/10/08 07:26:51;;;;;;;8.30;3.77;;;;;;;24.13;36.32;100154.69;5071949;28;20248;-62
2022/10/08 07:29:18;;;;;;;7.80;3.30;;;;;;;24.32;36.46;100151.22;5071773;28;20263;-62
2022/10/08 07:31:45;;;;;;;3.23;2.93;;;;;;;24.59;34.87;100146.31;5071685;28;20199;-63
2022/10/08 07:34:13;;;;;;;7.47;3.33;;;;;;;24.62;34.49;100143.09;5072569;28;20279;-63
2022/10/08 07:36:40;;;;;;;13.10;4.50;;;;;;;24.85;34.34;100142.56;5071898;28;20199;-62
2022/10/08 07:39:10;;;;;;;6.40;3.10;;;;;;;25.19;33.38;100136.53;5071606;28;20736;-63
2022/10/08 07:41:37;;;;;;;11.87;3.57;;;;;;;25.43;33.70;100132.16;5071811;28;20288;-63
2022/10/08 07:44:04;;;;;;;7.53;3.57;;;;;;;25.47;33.38;100127.78;5071855;28;20284;-63
2022/10/08 07:46:34;;;;;;;5.30;3.03;;;;;;;25.66;32.57;100126.06;5071756;28;20191;-63
2022/10/08 07:49:01;;;;;;;6.00;3.43;;;;;;;25.91;33.00;100131.38;5072297;28;20204;-62
2022/10/08 07:51:31;;;;;;;3.57;3.00;;;;;;;25.84;32.64;100133.59;5071381;28;20619;-62
2022/10/08 07:53:58;;;;;;;4.10;2.97;;;;;;;25.66;32.15;100136.94;5071539;28;20191;-62
2022/10/08 07:56:25;;;;;;;4.17;2.53;;;;;;;25.74;32.02;100139.91;5071133;28;20192;-62
2022/10/08 07:58:51;;;;;;;2.70;2.50;;;;;;;25.76;32.21;100126.03;5071428;28;20242;-62
2022/10/08 08:01:20;;;;;;;8.30;3.30;;;;;;;26.08;32.17;100134.56;5064702;28;20217;-63
2022/10/08 08:03:53;;;;;;;6.47;2.87;;;;;;;26.46;31.01;100131.84;5051202;28;20726;-63
2022/10/08 08:06:19;;;;;;;4.53;2.67;;;;;;;26.72;30.48;100129.78;5051832;28;20188;-62
2022/10/08 08:08:48;;;;;;;2.70;2.30;;;;;;;26.72;30.64;100124.31;5051195;28;20734;-62
2022/10/08 08:11:18;;;;;;;3.53;2.13;;;;;;;26.93;30.03;100121.13;5051710;28;20567;-63
2022/10/08 08:13:45;;;;;;;2.70;2.43;;;;;;;27.12;30.12;100116.56;5051448;28;20197;-64
2022/10/08 08:16:14;;;;;;;16.33;2.83;;;;;;;27.41;29.35;100127.47;5051119;28;20201;-63
2022/10/08 08:18:42;;;;;;;2.83;2.73;;;;;;;27.59;28.79;100123.97;5051165;28;20193;-63
2022/10/08 08:21:12;;;;;;;2.47;2.17;;;;;;;27.74;28.29;100123.78;5055173;28;20212;-63
2022/10/08 08:23:40;;;;;;;3.63;2.73;;;;;;;27.65;28.24;100117.34;5071202;28;20291;-63
2022/10/08 08:26:11;;;;;;;2.60;2.40;;;;;;;27.66;28.45;100118.97;5070968;28;20664;-63
2022/10/08 08:28:38;;;;;;;2.60;2.40;;;;;;;27.74;28.27;100116.41;5071597;28;20249;-63
2022/10/08 08:31:10;;;;;;;3.87;2.77;;;;;;;27.99;27.99;100118.81;5071412;28;20254;-63
2022/10/08 08:33:37;;;;;;;2.70;2.50;;;;;;;28.21;27.48;100110.00;5071162;28;20663;-64
2022/10/08 08:36:05;;;;;;;2.80;2.60;;;;;;;27.72;27.83;100106.88;5074487;28;20276;-63
2022/10/08 08:38:34;;;;;;;3.83;2.77;;;;;;;27.74;27.87;100101.94;5074497;28;20705;-63
2022/10/08 08:41:13;;;;;;;7.07;2.73;;;;;;;27.87;27.53;100109.44;5074729;28;20216;-63
2022/10/08 08:43:40;;;;;;;8.27;3.47;;;;;;;28.04;27.32;100105.09;5074317;28;20571;-63
2022/10/08 08:46:06;;;;;;;4.70;2.90;;;;;;;28.09;27.21;100106.94;5074407;28;20196;-63
2022/10/08 08:48:37;;;;;;;3.80;2.63;;;;;;;28.17;27.17;100098.09;5074403;28;20672;-64
2022/10/08 08:51:04;;;;;;;3.00;2.80;;;;;;;28.17;27.33;100103.56;5074231;28;20246;-63
2022/10/08 08:53:31;;;;;;;4.37;2.47;;;;;;;28.23;27.61;100094.97;5075396;28;20196;-63
2022/10/08 08:56:02;;;;;;;5.73;2.80;;;;;;;28.40;27.41;100097.97;5074526;28;20245;-63
2022/10/08 08:58:40;;;;;;;6.57;2.87;;;;;;;28.60;27.17;100099.59;5074270;28;20237;-63
2022/10/08 09:01:17;;;;;;;2.87;2.67;;;;;;;28.47;27.16;100097.63;5074026;28;20203;-63
2022/10/08 09:03:47;;;;;;;2.63;2.50;;;;;;;28.06;27.60;100088.41;5074273;28;20184;-62
2022/10/08 09:06:18;;;;;;;2.27;2.17;;;;;;;28.06;28.21;100083.72;5074005;28;20652;-63
2022/10/08 09:08:50;;;;;;;2.77;2.57;;;;;;;28.12;28.04;100081.75;5074133;28;20188;-63
2022/10/08 09:11:20;;;;;;;2.97;2.77;;;;;;;28.23;27.87;100078.56;5074246;28;20695;-63
2022/10/08 09:13:51;;;;;;;5.27;2.83;;;;;;;28.34;27.66;100071.81;5074154;28;20253;-63
2022/10/08 09:16:18;;;;;;;3.53;3.03;;;;;;;28.26;27.79;100067.03;5074349;28;20188;-63
2022/10/08 09:18:47;;;;;;;6.90;2.77;;;;;;;28.04;28.54;100057.81;5074639;28;20192;-62
2022/10/08 09:21:14;;;;;;;5.00;2.87;;;;;;;28.32;27.95;100056.81;5073799;28;20212;-63
2022/10/08 09:23:41;;;;;;;3.10;2.57;;;;;;;28.51;27.59;100057.66;5073766;28;20733;-63
2022/10/08 09:26:15;;;;;;;2.70;2.53;;;;;;;28.51;27.80;100043.97;5073903;28;20269;-63
2022/10/08 09:28:44;;;;;;;5.30;2.77;;;;;;;28.65;27.66;100042.06;5074225;28;20199;-63
2022/10/08 09:31:20;;;;;;;6.30;3.13;;;;;;;28.88;27.26;100049.31;5073620;28;20206;-64
2022/10/08 09:33:55;;;;;;;7.43;3.20;;;;;;;29.04;27.29;100037.78;5074746;28;20270;-63
2022/10/08 09:36:37;;;;;;;4.97;2.70;;;;;;;29.06;26.96;100029.28;5073876;28;20257;-64
2022/10/08 09:39:07;;;;;;;4.10;2.60;;;;;;;28.68;28.02;100033.28;5073417;28;20713;-65
2022/10/08 09:41:33;;;;;;;5.73;2.80;;;;;;;28.71;27.55;100027.22;5073299;28;20223;-62
2022/10/08 09:44:19;;;;;;;6.43;2.87;;;;;;;28.68;27.71;100022.34;5073675;28;20192;-63
2022/10/08 09:46:49;;;;;;;2.80;2.60;;;;;;;28.61;26.90;100021.91;5073037;28;20644;-62
2022/10/08 09:49:38;;;;;;;5.20;2.77;;;;;;;28.69;27.03;100015.75;5074078;28;20248;-63
2022/10/08 09:52:10;;;;;;;2.40;2.20;;;;;;;28.65;27.26;100014.72;5068789;28;20207;-63
2022/10/08 09:54:44;;;;;;;5.87;3.17;;;;;;;28.67;27.03;100007.03;5072991;28;20191;-63
2022/10/08 09:57:15;;;;;;;3.17;2.83;;;;;;;28.50;27.31;100004.09;5073358;28;20274;-62
2022/10/08 09:59:51;;;;;;;3.63;3.33;;;;;;;28.52;27.88;99996.38;5073305;28;20188;-63
2022/10/08 10:02:29;;;;;;;2.80;2.60;;;;;;;28.50;27.82;99988.47;5057661;28;20687;-62
2022/10/08 10:04:57;;;;;;;3.83;3.13;;;;;;;28.34;27.53;99995.28;5053089;28;20244;-62
2022/10/08 10:07:24;;;;;;;24.37;15.20;;;;;;;28.21;28.13;99984.31;5052787;28;20193;-62
2022/10/08 10:09:54;;;;;;;7.83;3.70;;;;;;;28.14;28.14;99975.72;5053632;28;20293;-62
2022/10/08 10:12:27;;;;;;;30.70;4.90;;;;;;;27.99;28.14;99975.94;5053390;28;20588;-62
2022/10/08 10:14:57;;;;;;;3.03;2.83;;;;;;;27.75;27.88;99983.41;5052511;28;20185;-64
2022/10/08 10:17:34;;;;;;;5.83;2.37;;;;;;;27.59;27.43;99961.00;5053503;28;20251;-62
2022/10/08 10:20:05;;;;;;;2.77;2.57;;;;;;;27.77;27.45;99967.56;5052942;28;20283;-62
2022/10/08 10:22:40;;;;;;;3.97;2.43;;;;;;;27.73;27.45;99971.97;5068427;28;20190;-62
2022/10/08 10:25:17;;;;;;;3.17;2.90;;;;;;;27.71;27.98;99950.44;5073196;28;20245;-62
2022/10/08 10:27:52;;;;;;;3.40;3.13;;;;;;;27.83;27.79;99945.34;5072885;28;20184;-63
2022/10/08 10:30:21;;;;;;;5.20;2.70;;;;;;;27.83;27.66;99939.06;5072318;28;20709;-63
2022/10/08 10:32:54;;;;;;;2.70;2.40;;;;;;;27.76;27.79;99935.91;5072528;28;20263;-63
2022/10/08 10:35:25;;;;;;;3.10;2.63;;;;;;;27.91;27.54;99935.66;5073070;28;20265;-63
2022/10/08 10:37:58;;;;;;;4.03;2.80;;;;;;;27.91;27.68;99930.19;5073078;28;20196;-63
2022/10/08 10:40:31;;;;;;;3.23;2.90;;;;;;;27.82;28.03;99926.53;5072162;28;20305;-63
2022/10/08 10:43:25;;;;;;;3.23;2.87;;;;;;;28.00;27.70;99914.75;5072847;28;20237;-63
2022/10/08 10:45:58;;;;;;;3.73;3.43;;;;;;;27.73;28.45;99925.56;5072964;28;20187;-62
2022/10/08 10:48:26;;;;;;;5.87;3.10;;;;;;;27.79;27.79;99921.63;5072246;28;20180;-63
2022/10/08 10:51:22;;;;;;;3.50;2.77;;;;;;;27.77;27.05;99912.94;5072645;28;20200;-62
2022/10/08 10:54:03;;;;;;;2.27;2.17;;;;;;;27.33;27.11;99913.34;5071153;28;20195;-63
2022/10/08 10:56:37;;;;;;;3.23;2.30;;;;;;;27.45;26.90;99904.72;5071914;28;20639;-63
2022/10/08 10:59:21;;;;;;;2.80;2.27;;;;;;;27.48;26.63;99909.59;5076062;28;20579;-63
2022/10/08 11:01:58;;;;;;;2.40;2.30;;;;;;;27.31;26.70;99903.84;5081394;28;20261;-63
2022/10/08 11:04:38;;;;;;;3.77;3.17;;;;;;;27.11;27.29;99887.72;5072149;28;20249;-63
2022/10/08 11:07:22;;;;;;;4.23;2.70;;;;;;;27.18;27.76;99890.88;5071991;28;20791;-63
2022/10/08 11:09:54;;;;;;;3.97;3.40;;;;;;;27.18;27.70;99890.88;5071793;28;20707;-63
2022/10/08 11:12:30;;;;;;;3.83;2.90;;;;;;;27.28;27.47;99885.31;5072704;28;20196;-63
2022/10/08 11:15:10;;;;;;;2.80;2.60;;;;;;;27.36;27.46;99884.66;5071767;28;20230;-63
2022/10/08 11:18:00;;;;;;;4.33;3.13;;;;;;;27.32;27.60;99878.16;5072111;28;20179;-64
2022/10/08 11:20:42;;;;;;;2.60;2.50;;;;;;;27.41;27.29;99876.38;5072299;28;20188;-63
2022/10/08 11:23:21;;;;;;;3.40;2.80;;;;;;;27.58;27.13;99879.38;5052044;28;20191;-63
2022/10/08 11:25:54;;;;;;;4.83;2.93;;;;;;;27.44;26.76;99859.44;5063045;28;20242;-63
2022/10/08 11:28:30;;;;;;;5.67;3.10;;;;;;;27.43;26.97;99860.50;5071661;28;20184;-63
2022/10/08 11:31:07;;;;;;;3.20;2.83;;;;;;;27.18;27.50;99855.41;5072285;28;20191;-63
2022/10/08 11:33:35;;;;;;;2.90;2.70;;;;;;;27.15;27.41;99845.91;5072346;28;20188;-63
2022/10/08 11:36:16;;;;;;;3.23;2.93;;;;;;;27.14;27.52;99843.47;5072644;28;20208;-64
2022/10/08 11:38:50;;;;;;;4.17;2.77;;;;;;;27.25;27.44;99839.53;5072261;28;20187;-63
2022/10/08 11:41:25;;;;;;;2.90;2.70;;;;;;;27.20;26.53;99831.44;5071807;28;20278;-63
2022/10/08 11:43:55;;;;;;;2.30;2.20;;;;;;;27.29;26.19;99829.63;5071449;28;20652;-63